Thursday, August 24, 2017, 12:57 AM EDT
Back to Local

KLBE, Latrobe / Westmorland

Location: Latrobe, PA, United States Lat: 40.283
Local Time: 12:57 AM EDT ( 4:57 GMT) Lon: -79.4
Time Zone: US/Eastern Elev: 1184 ft

Show me the last for .
Show Decoded

2017-08-24 00:35 METAR KLBE 240435Z AUTO 00000KT 10SM CLR 14/14 A3000 RMK AO2 =
2017-08-24 00:15 METAR KLBE 240415Z AUTO 21003KT 10SM CLR 14/14 A2999 RMK AO2 =
2017-08-23 23:55 METAR KLBE 240355Z AUTO 00000KT 10SM CLR 15/14 A2999 RMK AO2 =
2017-08-23 23:35 METAR KLBE 240335Z AUTO 18003KT 10SM CLR 15/14 A2998 RMK AO2 =
2017-08-23 23:15 METAR KLBE 240315Z AUTO 00000KT 10SM CLR 15/14 A2998 RMK AO2 =
2017-08-23 22:55 METAR KLBE 240255Z AUTO 17003KT 10SM FEW060 16/14 A2999 RMK AO2 =
2017-08-23 22:35 METAR KLBE 240235Z AUTO 18003KT 10SM BKN060 17/14 A2999 RMK AO2 =
2017-08-23 22:15 METAR KLBE 240215Z AUTO 00000KT 10SM BKN060 BKN065 17/14 A2999 RMK AO2 =
2017-08-23 21:47 METAR KLBE 240147Z 00000KT 20SM SCT060 18/14 A2998 =
2017-08-23 20:47 METAR KLBE 240047Z 23005KT 20SM SCT050 19/13 A2997 =
2017-08-23 19:47 METAR KLBE 232347Z 23006KT 20SM SCT060 20/13 A2996 =
2017-08-23 18:47 METAR KLBE 232247Z 27008KT 20SM FEW055 22/12 A2995 =
2017-08-23 17:47 METAR KLBE 232147Z VRB05KT 20SM SCT065 23/12 A2995 =
2017-08-23 16:47 METAR KLBE 232047Z 28008KT 20SM FEW040 23/11 2995 =
2017-08-23 15:48 METAR KLBE 231948Z VRB06KT 10SM FEW043 22/12 A2997 =
2017-08-23 14:48 METAR KLBE 231848Z 00000KT 10SM FEW045 23/13 A2997 =
2017-08-23 13:48 METAR KLBE 231748Z 00000KT 10SM FEW043 23/13 A2998 =
2017-08-23 12:45 METAR KLBE 231645Z 30005KT 10SM FEW043 22/14 A2998 =
2017-08-23 11:48 METAR KLBE 231548Z 00000KT 10SM BKN043 22/14 A2999 =
2017-08-23 10:48 METAR KLBE 231448Z 00000KT 10SM BKN043 20/15 A2999 =
2017-08-23 09:48 METAR KLBE 231348Z 00000KT 10SM BKN046 20/15 A2998 =
2017-08-23 08:50 METAR KLBE 231250Z 00000KT 10SM SCT018 BKN042 18/18 A2997 =
2017-08-23 07:50 METAR KLBE 231150Z 00000KT 10SM SCT018 BKN042 18/18 A2996 =
2017-08-23 06:50 METAR KLBE 231050Z 00000KT 10SM BKN040 18/18 A2994 =
2017-08-23 05:55 METAR KLBE 230955Z AUTO 00000KT 10SM OVC040 18/18 A2993 RMK AO2 =
2017-08-23 05:35 METAR KLBE 230935Z AUTO 00000KT 10SM SCT036 SCT043 BKN075 18/18 A2993 RMK AO2 =
2017-08-23 05:15 METAR KLBE 230915Z AUTO 00000KT 10SM FEW065 BKN080 18/18 A2992 RMK AO2 =
2017-08-23 04:55 METAR KLBE 230855Z AUTO 00000KT 10SM BKN055 BKN075 18/18 A2992 RMK AO2 =
2017-08-23 04:35 METAR KLBE 230835Z AUTO 00000KT 10SM BKN055 18/18 A2992 RMK AO2 =
2017-08-23 04:15 METAR KLBE 230815Z AUTO 00000KT 10SM BKN055 18/18 A2991 RMK AO2 =
2017-08-23 03:55 METAR KLBE 230755Z AUTO 00000KT 10SM BKN055 19/19 A2991 RMK AO2 =
2017-08-23 03:35 METAR KLBE 230735Z AUTO 25003KT 10SM FEW025 OVC055 19/19 A2991 RMK AO2 =
2017-08-23 03:15 METAR KLBE 230715Z AUTO 26004KT 10SM BKN022 OVC055 19/19 A2991 RMK AO2 =
2017-08-23 02:55 METAR KLBE 230655Z AUTO 24004KT 10SM OVC020 19/19 A2991 RMK AO2 =
2017-08-23 02:35 METAR KLBE 230635Z AUTO 24003KT 10SM OVC022 19/19 A2991 RMK AO2 =
2017-08-23 02:15 METAR KLBE 230615Z AUTO 00000KT 10SM OVC024 19/19 A2991 RMK AO2 =
2017-08-23 01:55 METAR KLBE 230555Z AUTO 22003KT 10SM SCT024 BKN047 OVC080 19/19 A2990 RMK AO2
                 P0002 =
2017-08-23 01:15 METAR KLBE 230515Z AUTO 28007KT 5SM -RA SCT010 SCT028 BKN040 20/20 A2989 RMK AO2
                 P0001 =

Support USWX by starting your Amazon purchase here.